LATI

Tirana International Mother Teresa Airport

Tirana, Albania
TAF LATI 221100Z 2212/2312 33010KT CAVOK TX32/2312Z TN15/2304Z BECMG 2217/2219 VRB03KT PROB40 2223/2306 3000 BR
Issued Valid From Valid To
Sep-22 @ 11:00 UTC
(5 hours ago)
Sep-22 @ 12:00 UTC
(4 hours ago)
Sep-23 @ 12:00 UTC
(in 20 hours)
to
to
to
TAF LATI 221100Z 2212/2312 33010KT CAVOK TX32/2312Z TN15/2304Z BECMG 2217/2219 VRB03KT PROB40 2223/2306 3000 BR
Issued Sep-22 @ 11:00 UTC
(5 hours ago)
Valid From Sep-22 @ 12:00 UTC
(4 hours ago)
Valid To Sep-23 @ 12:00 UTC
(in 20 hours)
-
-
-